sensor_id;sensor_type;location;lat;lon;timestamp;P1;durP1;ratioP1;P2;durP2;ratioP2
24409;SDS011;12543;53.364;-1.504;2023-08-24T00:01:28;1.20;;;1.10;;
24409;SDS011;12543;53.364;-1.504;2023-08-24T00:03:55;1.63;;;1.33;;
24409;SDS011;12543;53.364;-1.504;2023-08-24T00:06:23;1.33;;;1.23;;
24409;SDS011;12543;53.364;-1.504;2023-08-24T00:08:50;1.83;;;1.65;;
24409;SDS011;12543;53.364;-1.504;2023-08-24T00:11:18;1.43;;;1.30;;
24409;SDS011;12543;53.364;-1.504;2023-08-24T00:13:46;2.15;;;1.27;;
24409;SDS011;12543;53.364;-1.504;2023-08-24T00:16:18;1.95;;;1.40;;
24409;SDS011;12543;53.364;-1.504;2023-08-24T00:18:46;1.75;;;1.40;;
24409;SDS011;12543;53.364;-1.504;2023-08-24T00:21:14;3.23;;;1.60;;
24409;SDS011;12543;53.364;-1.504;2023-08-24T00:23:46;2.58;;;1.50;;
24409;SDS011;12543;53.364;-1.504;2023-08-24T00:26:13;1.38;;;1.27;;
24409;SDS011;12543;53.364;-1.504;2023-08-24T00:28:43;1.52;;;1.42;;
24409;SDS011;12543;53.364;-1.504;2023-08-24T00:31:12;1.33;;;1.05;;
24409;SDS011;12543;53.364;-1.504;2023-08-24T00:33:40;1.15;;;1.00;;
24409;SDS011;12543;53.364;-1.504;2023-08-24T00:36:07;1.33;;;1.23;;
24409;SDS011;12543;53.364;-1.504;2023-08-24T00:38:38;1.33;;;1.17;;
24409;SDS011;12543;53.364;-1.504;2023-08-24T00:41:05;2.67;;;1.10;;
24409;SDS011;12543;53.364;-1.504;2023-08-24T00:43:33;1.70;;;1.60;;
24409;SDS011;12543;53.364;-1.504;2023-08-24T00:46:02;1.95;;;1.55;;
24409;SDS011;12543;53.364;-1.504;2023-08-24T00:48:31;1.63;;;1.30;;
24409;SDS011;12543;53.364;-1.504;2023-08-24T00:50:59;1.15;;;1.05;;
24409;SDS011;12543;53.364;-1.504;2023-08-24T00:53:28;1.10;;;1.00;;
24409;SDS011;12543;53.364;-1.504;2023-08-24T01:00:54;1.10;;;1.00;;
24409;SDS011;12543;53.364;-1.504;2023-08-24T01:03:22;1.30;;;1.08;;
24409;SDS011;12543;53.364;-1.504;2023-08-24T01:05:51;1.10;;;1.00;;
24409;SDS011;12543;53.364;-1.504;2023-08-24T01:08:19;1.70;;;1.20;;
24409;SDS011;12543;53.364;-1.504;2023-08-24T01:13:17;1.63;;;1.35;;
24409;SDS011;12543;53.364;-1.504;2023-08-24T01:15:51;1.65;;;1.35;;
24409;SDS011;12543;53.364;-1.504;2023-08-24T01:18:23;1.75;;;1.17;;
24409;SDS011;12543;53.364;-1.504;2023-08-24T01:20:53;1.40;;;1.20;;
24409;SDS011;12543;53.364;-1.504;2023-08-24T01:28:31;2.38;;;1.42;;
24409;SDS011;12543;53.364;-1.504;2023-08-24T01:30:59;2.70;;;1.45;;
24409;SDS011;12543;53.364;-1.504;2023-08-24T01:33:26;1.52;;;1.08;;
24409;SDS011;12543;53.364;-1.504;2023-08-24T01:35:54;1.67;;;1.58;;
24409;SDS011;12543;53.364;-1.504;2023-08-24T01:38:21;2.07;;;1.33;;
24409;SDS011;12543;53.364;-1.504;2023-08-24T01:43:25;1.83;;;1.60;;
24409;SDS011;12543;53.364;-1.504;2023-08-24T01:46:09;1.98;;;1.77;;
24409;SDS011;12543;53.364;-1.504;2023-08-24T01:48:37;1.98;;;1.42;;
24409;SDS011;12543;53.364;-1.504;2023-08-24T01:51:05;1.70;;;1.55;;
24409;SDS011;12543;53.364;-1.504;2023-08-24T01:53:34;2.75;;;1.90;;
24409;SDS011;12543;53.364;-1.504;2023-08-24T01:56:08;1.50;;;1.40;;
24409;SDS011;12543;53.364;-1.504;2023-08-24T01:58:35;1.77;;;1.20;;
24409;SDS011;12543;53.364;-1.504;2023-08-24T02:01:04;3.67;;;1.50;;
24409;SDS011;12543;53.364;-1.504;2023-08-24T02:03:32;1.50;;;1.40;;
24409;SDS011;12543;53.364;-1.504;2023-08-24T02:06:00;1.70;;;1.35;;
24409;SDS011;12543;53.364;-1.504;2023-08-24T02:08:29;1.38;;;1.27;;
24409;SDS011;12543;53.364;-1.504;2023-08-24T02:10:57;1.50;;;1.40;;
24409;SDS011;12543;53.364;-1.504;2023-08-24T02:13:24;2.53;;;1.70;;
24409;SDS011;12543;53.364;-1.504;2023-08-24T02:16:05;1.30;;;1.17;;
24409;SDS011;12543;53.364;-1.504;2023-08-24T02:18:34;2.67;;;1.25;;
24409;SDS011;12543;53.364;-1.504;2023-08-24T02:21:06;1.90;;;1.35;;
24409;SDS011;12543;53.364;-1.504;2023-08-24T02:23:34;2.33;;;1.50;;
24409;SDS011;12543;53.364;-1.504;2023-08-24T02:26:01;2.53;;;1.23;;
24409;SDS011;12543;53.364;-1.504;2023-08-24T02:28:30;1.20;;;1.10;;
24409;SDS011;12543;53.364;-1.504;2023-08-24T02:31:03;1.40;;;1.30;;
24409;SDS011;12543;53.364;-1.504;2023-08-24T02:33:37;1.38;;;1.25;;
24409;SDS011;12543;53.364;-1.504;2023-08-24T02:36:05;4.13;;;1.85;;
24409;SDS011;12543;53.364;-1.504;2023-08-24T02:38:33;1.60;;;1.47;;
24409;SDS011;12543;53.364;-1.504;2023-08-24T02:41:09;1.13;;;1.02;;
24409;SDS011;12543;53.364;-1.504;2023-08-24T02:43:37;3.15;;;1.77;;
24409;SDS011;12543;53.364;-1.504;2023-08-24T02:46:08;2.33;;;1.30;;
24409;SDS011;12543;53.364;-1.504;2023-08-24T02:48:36;1.35;;;1.25;;
24409;SDS011;12543;53.364;-1.504;2023-08-24T02:51:04;1.57;;;1.40;;
24409;SDS011;12543;53.364;-1.504;2023-08-24T02:53:32;1.50;;;1.20;;
24409;SDS011;12543;53.364;-1.504;2023-08-24T02:56:00;1.40;;;1.30;;
24409;SDS011;12543;53.364;-1.504;2023-08-24T02:58:28;1.80;;;1.35;;
24409;SDS011;12543;53.364;-1.504;2023-08-24T03:00:55;1.52;;;1.40;;
24409;SDS011;12543;53.364;-1.504;2023-08-24T03:03:23;1.77;;;1.50;;
24409;SDS011;12543;53.364;-1.504;2023-08-24T03:05:59;1.35;;;1.23;;
24409;SDS011;12543;53.364;-1.504;2023-08-24T03:08:28;1.88;;;1.38;;
24409;SDS011;12543;53.364;-1.504;2023-08-24T03:10:56;1.35;;;1.25;;
24409;SDS011;12543;53.364;-1.504;2023-08-24T03:13:27;2.38;;;1.27;;
24409;SDS011;12543;53.364;-1.504;2023-08-24T03:15:55;2.17;;;1.40;;
24409;SDS011;12543;53.364;-1.504;2023-08-24T03:18:26;2.53;;;1.33;;
24409;SDS011;12543;53.364;-1.504;2023-08-24T03:20:55;1.90;;;1.57;;
24409;SDS011;12543;53.364;-1.504;2023-08-24T03:23:22;1.70;;;1.38;;
24409;SDS011;12543;53.364;-1.504;2023-08-24T03:25:50;1.90;;;1.40;;
24409;SDS011;12543;53.364;-1.504;2023-08-24T03:28:19;1.63;;;1.30;;
24409;SDS011;12543;53.364;-1.504;2023-08-24T03:30:47;1.50;;;1.30;;
24409;SDS011;12543;53.364;-1.504;2023-08-24T03:33:16;2.50;;;1.60;;
24409;SDS011;12543;53.364;-1.504;2023-08-24T03:35:43;1.60;;;1.38;;
24409;SDS011;12543;53.364;-1.504;2023-08-24T03:38:11;2.23;;;1.30;;
24409;SDS011;12543;53.364;-1.504;2023-08-24T03:40:41;1.75;;;1.50;;
24409;SDS011;12543;53.364;-1.504;2023-08-24T03:43:09;1.50;;;1.40;;
24409;SDS011;12543;53.364;-1.504;2023-08-24T03:45:36;1.90;;;1.13;;
24409;SDS011;12543;53.364;-1.504;2023-08-24T03:48:04;1.60;;;1.48;;
24409;SDS011;12543;53.364;-1.504;2023-08-24T03:50:32;1.67;;;1.50;;
24409;SDS011;12543;53.364;-1.504;2023-08-24T03:53:00;1.90;;;1.47;;
24409;SDS011;12543;53.364;-1.504;2023-08-24T03:55:27;1.40;;;1.30;;
24409;SDS011;12543;53.364;-1.504;2023-08-24T03:57:55;1.83;;;1.33;;
24409;SDS011;12543;53.364;-1.504;2023-08-24T04:00:25;1.63;;;1.27;;
24409;SDS011;12543;53.364;-1.504;2023-08-24T04:02:52;2.28;;;1.13;;
24409;SDS011;12543;53.364;-1.504;2023-08-24T04:05:24;1.88;;;1.23;;
24409;SDS011;12543;53.364;-1.504;2023-08-24T04:07:52;2.17;;;1.67;;
24409;SDS011;12543;53.364;-1.504;2023-08-24T04:10:20;1.08;;;0.98;;
24409;SDS011;12543;53.364;-1.504;2023-08-24T04:12:47;1.23;;;1.13;;
24409;SDS011;12543;53.364;-1.504;2023-08-24T04:15:15;1.10;;;1.00;;
24409;SDS011;12543;53.364;-1.504;2023-08-24T04:17:43;1.70;;;1.20;;
24409;SDS011;12543;53.364;-1.504;2023-08-24T04:20:11;1.88;;;1.50;;
24409;SDS011;12543;53.364;-1.504;2023-08-24T04:22:39;1.50;;;1.30;;
24409;SDS011;12543;53.364;-1.504;2023-08-24T04:25:07;1.50;;;1.30;;
24409;SDS011;12543;53.364;-1.504;2023-08-24T04:30:03;1.30;;;1.20;;
24409;SDS011;12543;53.364;-1.504;2023-08-24T04:32:31;1.42;;;1.33;;
24409;SDS011;12543;53.364;-1.504;2023-08-24T04:34:59;1.30;;;1.20;;
24409;SDS011;12543;53.364;-1.504;2023-08-24T04:37:27;1.25;;;1.08;;
24409;SDS011;12543;53.364;-1.504;2023-08-24T04:39:54;1.20;;;1.10;;
24409;SDS011;12543;53.364;-1.504;2023-08-24T04:42:22;1.27;;;1.17;;
24409;SDS011;12543;53.364;-1.504;2023-08-24T04:44:50;2.13;;;1.23;;
24409;SDS011;12543;53.364;-1.504;2023-08-24T04:47:18;2.50;;;1.40;;
24409;SDS011;12543;53.364;-1.504;2023-08-24T04:49:45;1.90;;;1.40;;
24409;SDS011;12543;53.364;-1.504;2023-08-24T04:52:13;1.45;;;1.10;;
24409;SDS011;12543;53.364;-1.504;2023-08-24T04:54:41;2.53;;;1.43;;
24409;SDS011;12543;53.364;-1.504;2023-08-24T04:57:08;1.42;;;1.05;;
24409;SDS011;12543;53.364;-1.504;2023-08-24T04:59:36;1.43;;;1.27;;
24409;SDS011;12543;53.364;-1.504;2023-08-24T05:02:04;1.70;;;1.20;;
24409;SDS011;12543;53.364;-1.504;2023-08-24T05:04:31;2.00;;;1.20;;
24409;SDS011;12543;53.364;-1.504;2023-08-24T05:06:59;1.33;;;1.10;;
24409;SDS011;12543;53.364;-1.504;2023-08-24T05:09:26;1.23;;;1.13;;
24409;SDS011;12543;53.364;-1.504;2023-08-24T05:11:54;1.20;;;1.10;;
24409;SDS011;12543;53.364;-1.504;2023-08-24T05:14:28;1.20;;;1.10;;
24409;SDS011;12543;53.364;-1.504;2023-08-24T05:16:55;1.23;;;1.08;;
24409;SDS011;12543;53.364;-1.504;2023-08-24T05:19:23;1.90;;;1.10;;
24409;SDS011;12543;53.364;-1.504;2023-08-24T05:21:52;0.90;;;0.90;;
24409;SDS011;12543;53.364;-1.504;2023-08-24T05:24:20;1.15;;;0.93;;
24409;SDS011;12543;53.364;-1.504;2023-08-24T05:26:48;1.00;;;0.90;;
24409;SDS011;12543;53.364;-1.504;2023-08-24T05:29:15;1.13;;;0.90;;
24409;SDS011;12543;53.364;-1.504;2023-08-24T05:31:43;1.00;;;0.80;;
24409;SDS011;12543;53.364;-1.504;2023-08-24T05:34:10;0.93;;;0.82;;
24409;SDS011;12543;53.364;-1.504;2023-08-24T05:36:38;0.70;;;0.70;;
24409;SDS011;12543;53.364;-1.504;2023-08-24T05:39:06;1.57;;;0.90;;
24409;SDS011;12543;53.364;-1.504;2023-08-24T05:41:35;0.82;;;0.82;;
24409;SDS011;12543;53.364;-1.504;2023-08-24T05:44:05;1.35;;;0.90;;
24409;SDS011;12543;53.364;-1.504;2023-08-24T05:46:32;0.73;;;0.70;;
24409;SDS011;12543;53.364;-1.504;2023-08-24T05:49:01;1.25;;;1.00;;
24409;SDS011;12543;53.364;-1.504;2023-08-24T05:51:31;0.77;;;0.77;;
24409;SDS011;12543;53.364;-1.504;2023-08-24T05:53:59;1.90;;;1.10;;
24409;SDS011;12543;53.364;-1.504;2023-08-24T05:56:27;0.85;;;0.80;;
24409;SDS011;12543;53.364;-1.504;2023-08-24T05:58:55;1.48;;;0.65;;
24409;SDS011;12543;53.364;-1.504;2023-08-24T06:01:22;0.80;;;0.75;;
24409;SDS011;12543;53.364;-1.504;2023-08-24T06:03:50;0.77;;;0.70;;
24409;SDS011;12543;53.364;-1.504;2023-08-24T06:08:46;0.73;;;0.63;;
24409;SDS011;12543;53.364;-1.504;2023-08-24T06:11:14;0.77;;;0.70;;
24409;SDS011;12543;53.364;-1.504;2023-08-24T06:13:41;0.60;;;0.60;;
24409;SDS011;12543;53.364;-1.504;2023-08-24T06:16:09;0.80;;;0.80;;
24409;SDS011;12543;53.364;-1.504;2023-08-24T06:18:36;0.80;;;0.80;;
24409;SDS011;12543;53.364;-1.504;2023-08-24T06:21:04;0.82;;;0.82;;
24409;SDS011;12543;53.364;-1.504;2023-08-24T06:23:32;1.27;;;0.70;;
24409;SDS011;12543;53.364;-1.504;2023-08-24T06:25:59;0.70;;;0.70;;
24409;SDS011;12543;53.364;-1.504;2023-08-24T06:28:27;1.02;;;0.50;;
24409;SDS011;12543;53.364;-1.504;2023-08-24T06:30:55;1.07;;;0.90;;
24409;SDS011;12543;53.364;-1.504;2023-08-24T06:33:29;0.98;;;0.75;;
24409;SDS011;12543;53.364;-1.504;2023-08-24T06:36:09;1.35;;;0.80;;
24409;SDS011;12543;53.364;-1.504;2023-08-24T06:38:36;1.50;;;0.80;;
24409;SDS011;12543;53.364;-1.504;2023-08-24T06:41:04;0.80;;;0.60;;
24409;SDS011;12543;53.364;-1.504;2023-08-24T06:43:31;0.60;;;0.60;;
24409;SDS011;12543;53.364;-1.504;2023-08-24T06:45:59;2.10;;;0.80;;
24409;SDS011;12543;53.364;-1.504;2023-08-24T06:48:27;0.80;;;0.60;;
24409;SDS011;12543;53.364;-1.504;2023-08-24T06:50:56;0.70;;;0.60;;
24409;SDS011;12543;53.364;-1.504;2023-08-24T06:53:30;0.98;;;0.70;;
24409;SDS011;12543;53.364;-1.504;2023-08-24T06:55:58;1.55;;;0.93;;
24409;SDS011;12543;53.364;-1.504;2023-08-24T06:58:26;0.60;;;0.60;;
24409;SDS011;12543;53.364;-1.504;2023-08-24T07:00:53;1.50;;;0.87;;
24409;SDS011;12543;53.364;-1.504;2023-08-24T07:03:22;0.88;;;0.88;;
24409;SDS011;12543;53.364;-1.504;2023-08-24T07:08:18;0.85;;;0.63;;
24409;SDS011;12543;53.364;-1.504;2023-08-24T07:10:45;0.73;;;0.73;;
24409;SDS011;12543;53.364;-1.504;2023-08-24T07:13:13;0.90;;;0.70;;
24409;SDS011;12543;53.364;-1.504;2023-08-24T07:15:41;0.63;;;0.57;;
24409;SDS011;12543;53.364;-1.504;2023-08-24T07:18:09;0.70;;;0.60;;
24409;SDS011;12543;53.364;-1.504;2023-08-24T07:20:37;0.55;;;0.55;;
24409;SDS011;12543;53.364;-1.504;2023-08-24T07:23:05;0.68;;;0.65;;
24409;SDS011;12543;53.364;-1.504;2023-08-24T07:25:33;1.42;;;0.73;;
24409;SDS011;12543;53.364;-1.504;2023-08-24T07:28:00;1.10;;;0.77;;
24409;SDS011;12543;53.364;-1.504;2023-08-24T07:30:30;0.63;;;0.63;;
24409;SDS011;12543;53.364;-1.504;2023-08-24T07:33:00;0.60;;;0.60;;
24409;SDS011;12543;53.364;-1.504;2023-08-24T07:35:31;1.52;;;0.93;;
24409;SDS011;12543;53.364;-1.504;2023-08-24T07:37:59;1.30;;;0.80;;
24409;SDS011;12543;53.364;-1.504;2023-08-24T07:40:27;0.82;;;0.80;;
24409;SDS011;12543;53.364;-1.504;2023-08-24T07:42:57;0.60;;;0.60;;
24409;SDS011;12543;53.364;-1.504;2023-08-24T07:45:26;0.60;;;0.60;;
24409;SDS011;12543;53.364;-1.504;2023-08-24T07:47:54;1.63;;;0.90;;
24409;SDS011;12543;53.364;-1.504;2023-08-24T07:50:22;1.83;;;0.77;;
24409;SDS011;12543;53.364;-1.504;2023-08-24T07:52:50;0.75;;;0.65;;
24409;SDS011;12543;53.364;-1.504;2023-08-24T07:55:21;1.55;;;0.80;;
24409;SDS011;12543;53.364;-1.504;2023-08-24T07:57:49;1.10;;;0.87;;
24409;SDS011;12543;53.364;-1.504;2023-08-24T08:00:17;1.60;;;0.88;;
24409;SDS011;12543;53.364;-1.504;2023-08-24T08:02:45;0.90;;;0.65;;
24409;SDS011;12543;53.364;-1.504;2023-08-24T08:05:12;0.60;;;0.60;;
24409;SDS011;12543;53.364;-1.504;2023-08-24T08:07:40;1.00;;;0.60;;
24409;SDS011;12543;53.364;-1.504;2023-08-24T08:10:08;1.58;;;0.70;;
24409;SDS011;12543;53.364;-1.504;2023-08-24T08:12:36;1.05;;;0.68;;
24409;SDS011;12543;53.364;-1.504;2023-08-24T08:15:03;1.07;;;0.47;;
24409;SDS011;12543;53.364;-1.504;2023-08-24T08:17:31;0.95;;;0.55;;
24409;SDS011;12543;53.364;-1.504;2023-08-24T08:20:00;0.70;;;0.60;;
24409;SDS011;12543;53.364;-1.504;2023-08-24T08:22:29;0.55;;;0.50;;
24409;SDS011;12543;53.364;-1.504;2023-08-24T08:24:56;1.35;;;0.70;;
24409;SDS011;12543;53.364;-1.504;2023-08-24T08:27:24;0.70;;;0.60;;
24409;SDS011;12543;53.364;-1.504;2023-08-24T08:29:52;1.45;;;0.80;;
24409;SDS011;12543;53.364;-1.504;2023-08-24T08:32:19;1.40;;;1.30;;
24409;SDS011;12543;53.364;-1.504;2023-08-24T08:34:47;2.08;;;1.17;;
24409;SDS011;12543;53.364;-1.504;2023-08-24T08:37:15;1.33;;;1.20;;
24409;SDS011;12543;53.364;-1.504;2023-08-24T08:39:42;1.30;;;1.20;;
24409;SDS011;12543;53.364;-1.504;2023-08-24T08:42:14;2.72;;;1.35;;
24409;SDS011;12543;53.364;-1.504;2023-08-24T08:44:42;1.73;;;1.40;;
24409;SDS011;12543;53.364;-1.504;2023-08-24T08:47:11;2.05;;;1.55;;
24409;SDS011;12543;53.364;-1.504;2023-08-24T08:49:38;1.63;;;1.52;;
24409;SDS011;12543;53.364;-1.504;2023-08-24T08:52:06;1.98;;;1.75;;
24409;SDS011;12543;53.364;-1.504;2023-08-24T08:54:34;2.17;;;1.30;;
24409;SDS011;12543;53.364;-1.504;2023-08-24T08:57:05;1.20;;;1.10;;
24409;SDS011;12543;53.364;-1.504;2023-08-24T08:59:33;1.20;;;1.10;;
24409;SDS011;12543;53.364;-1.504;2023-08-24T09:02:02;1.02;;;0.93;;
24409;SDS011;12543;53.364;-1.504;2023-08-24T09:06:57;0.97;;;0.53;;
24409;SDS011;12543;53.364;-1.504;2023-08-24T09:09:27;1.42;;;0.70;;
24409;SDS011;12543;53.364;-1.504;2023-08-24T09:11:58;0.63;;;0.40;;
24409;SDS011;12543;53.364;-1.504;2023-08-24T09:14:26;0.60;;;0.50;;
24409;SDS011;12543;53.364;-1.504;2023-08-24T09:16:54;0.43;;;0.43;;
24409;SDS011;12543;53.364;-1.504;2023-08-24T09:19:28;1.05;;;0.50;;
24409;SDS011;12543;53.364;-1.504;2023-08-24T09:22:00;1.45;;;0.45;;
24409;SDS011;12543;53.364;-1.504;2023-08-24T09:24:31;0.70;;;0.40;;
24409;SDS011;12543;53.364;-1.504;2023-08-24T09:26:59;0.40;;;0.40;;
24409;SDS011;12543;53.364;-1.504;2023-08-24T09:31:55;0.40;;;0.40;;
24409;SDS011;12543;53.364;-1.504;2023-08-24T09:34:25;0.30;;;0.30;;
24409;SDS011;12543;53.364;-1.504;2023-08-24T09:36:57;0.57;;;0.40;;
24409;SDS011;12543;53.364;-1.504;2023-08-24T09:39:25;0.47;;;0.30;;
24409;SDS011;12543;53.364;-1.504;2023-08-24T09:41:53;0.60;;;0.50;;
24409;SDS011;12543;53.364;-1.504;2023-08-24T09:44:21;0.52;;;0.40;;
24409;SDS011;12543;53.364;-1.504;2023-08-24T09:46:48;0.40;;;0.40;;
24409;SDS011;12543;53.364;-1.504;2023-08-24T09:49:17;0.28;;;0.28;;
24409;SDS011;12543;53.364;-1.504;2023-08-24T09:51:46;0.70;;;0.50;;
24409;SDS011;12543;53.364;-1.504;2023-08-24T09:54:15;0.60;;;0.40;;
24409;SDS011;12543;53.364;-1.504;2023-08-24T09:56:47;0.52;;;0.50;;
24409;SDS011;12543;53.364;-1.504;2023-08-24T09:59:16;0.63;;;0.55;;
24409;SDS011;12543;53.364;-1.504;2023-08-24T10:01:46;0.40;;;0.35;;
24409;SDS011;12543;53.364;-1.504;2023-08-24T10:04:15;0.82;;;0.57;;
24409;SDS011;12543;53.364;-1.504;2023-08-24T10:06:44;0.52;;;0.50;;
24409;SDS011;12543;53.364;-1.504;2023-08-24T10:09:18;0.40;;;0.40;;
24409;SDS011;12543;53.364;-1.504;2023-08-24T10:11:49;0.82;;;0.50;;
24409;SDS011;12543;53.364;-1.504;2023-08-24T10:16:52;0.65;;;0.65;;
24409;SDS011;12543;53.364;-1.504;2023-08-24T10:19:20;1.25;;;0.80;;
24409;SDS011;12543;53.364;-1.504;2023-08-24T10:21:49;0.60;;;0.60;;
24409;SDS011;12543;53.364;-1.504;2023-08-24T10:24:17;0.70;;;0.70;;
24409;SDS011;12543;53.364;-1.504;2023-08-24T10:26:47;1.20;;;1.10;;
24409;SDS011;12543;53.364;-1.504;2023-08-24T10:29:16;1.45;;;1.08;;
24409;SDS011;12543;53.364;-1.504;2023-08-24T10:34:11;1.48;;;1.38;;
24409;SDS011;12543;53.364;-1.504;2023-08-24T10:36:39;1.50;;;1.40;;
24409;SDS011;12543;53.364;-1.504;2023-08-24T10:41:51;2.15;;;2.03;;
24409;SDS011;12543;53.364;-1.504;2023-08-24T10:44:34;2.25;;;2.05;;
24409;SDS011;12543;53.364;-1.504;2023-08-24T10:47:06;2.40;;;2.20;;
24409;SDS011;12543;53.364;-1.504;2023-08-24T10:49:34;2.40;;;2.20;;
24409;SDS011;12543;53.364;-1.504;2023-08-24T10:52:18;2.33;;;2.13;;
24409;SDS011;12543;53.364;-1.504;2023-08-24T10:54:46;2.33;;;2.13;;
24409;SDS011;12543;53.364;-1.504;2023-08-24T10:57:19;2.60;;;2.40;;
24409;SDS011;12543;53.364;-1.504;2023-08-24T11:00:03;2.30;;;2.10;;
24409;SDS011;12543;53.364;-1.504;2023-08-24T11:02:47;2.22;;;2.03;;
24409;SDS011;12543;53.364;-1.504;2023-08-24T11:05:20;2.20;;;2.00;;
24409;SDS011;12543;53.364;-1.504;2023-08-24T11:10:17;2.30;;;2.10;;
24409;SDS011;12543;53.364;-1.504;2023-08-24T11:15:44;1.80;;;1.70;;
24409;SDS011;12543;53.364;-1.504;2023-08-24T11:18:19;2.03;;;1.92;;
24409;SDS011;12543;53.364;-1.504;2023-08-24T11:23:16;1.98;;;1.88;;
24409;SDS011;12543;53.364;-1.504;2023-08-24T11:25:45;1.90;;;1.80;;
24409;SDS011;12543;53.364;-1.504;2023-08-24T11:28:16;1.45;;;1.35;;
24409;SDS011;12543;53.364;-1.504;2023-08-24T11:30:45;1.83;;;1.30;;
24409;SDS011;12543;53.364;-1.504;2023-08-24T11:33:13;1.35;;;1.25;;
24409;SDS011;12543;53.364;-1.504;2023-08-24T11:35:42;1.52;;;1.42;;
24409;SDS011;12543;53.364;-1.504;2023-08-24T11:38:10;1.35;;;1.25;;
24409;SDS011;12543;53.364;-1.504;2023-08-24T11:43:06;1.73;;;1.10;;
24409;SDS011;12543;53.364;-1.504;2023-08-24T11:45:35;0.80;;;0.80;;
24409;SDS011;12543;53.364;-1.504;2023-08-24T11:48:03;1.42;;;1.10;;
24409;SDS011;12543;53.364;-1.504;2023-08-24T11:50:32;1.17;;;1.02;;
24409;SDS011;12543;53.364;-1.504;2023-08-24T11:53:02;1.20;;;1.00;;
24409;SDS011;12543;53.364;-1.504;2023-08-24T11:55:30;0.90;;;0.90;;
24409;SDS011;12543;53.364;-1.504;2023-08-24T11:57:58;2.15;;;1.00;;
24409;SDS011;12543;53.364;-1.504;2023-08-24T12:00:26;0.80;;;0.80;;
24409;SDS011;12543;53.364;-1.504;2023-08-24T12:02:54;0.85;;;0.68;;
24409;SDS011;12543;53.364;-1.504;2023-08-24T12:05:23;0.70;;;0.60;;
24409;SDS011;12543;53.364;-1.504;2023-08-24T12:07:51;0.60;;;0.60;;
24409;SDS011;12543;53.364;-1.504;2023-08-24T12:10:20;2.42;;;0.55;;
24409;SDS011;12543;53.364;-1.504;2023-08-24T12:15:18;0.65;;;0.50;;
24409;SDS011;12543;53.364;-1.504;2023-08-24T12:17:47;0.40;;;0.40;;
24409;SDS011;12543;53.364;-1.504;2023-08-24T12:20:18;0.35;;;0.35;;
24409;SDS011;12543;53.364;-1.504;2023-08-24T12:25:22;0.30;;;0.30;;
24409;SDS011;12543;53.364;-1.504;2023-08-24T12:27:51;0.40;;;0.40;;
24409;SDS011;12543;53.364;-1.504;2023-08-24T12:30:19;0.55;;;0.40;;
24409;SDS011;12543;53.364;-1.504;2023-08-24T12:35:17;0.40;;;0.40;;
24409;SDS011;12543;53.364;-1.504;2023-08-24T12:37:44;0.60;;;0.60;;
24409;SDS011;12543;53.364;-1.504;2023-08-24T12:40:12;0.40;;;0.40;;
24409;SDS011;12543;53.364;-1.504;2023-08-24T12:42:40;0.47;;;0.47;;
24409;SDS011;12543;53.364;-1.504;2023-08-24T12:45:08;0.40;;;0.35;;
24409;SDS011;12543;53.364;-1.504;2023-08-24T12:47:36;0.30;;;0.30;;
24409;SDS011;12543;53.364;-1.504;2023-08-24T12:50:05;0.40;;;0.30;;
24409;SDS011;12543;53.364;-1.504;2023-08-24T12:52:33;0.22;;;0.20;;
24409;SDS011;12543;53.364;-1.504;2023-08-24T12:55:01;0.45;;;0.30;;
24409;SDS011;12543;53.364;-1.504;2023-08-24T12:57:30;0.20;;;0.20;;
24409;SDS011;12543;53.364;-1.504;2023-08-24T12:59:58;0.40;;;0.40;;
24409;SDS011;12543;53.364;-1.504;2023-08-24T13:02:26;0.30;;;0.30;;
24409;SDS011;12543;53.364;-1.504;2023-08-24T13:05:04;0.35;;;0.30;;
24409;SDS011;12543;53.364;-1.504;2023-08-24T13:07:32;0.28;;;0.25;;
24409;SDS011;12543;53.364;-1.504;2023-08-24T13:10:02;0.60;;;0.40;;
24409;SDS011;12543;53.364;-1.504;2023-08-24T13:12:33;0.95;;;0.30;;
24409;SDS011;12543;53.364;-1.504;2023-08-24T13:15:02;0.28;;;0.20;;
24409;SDS011;12543;53.364;-1.504;2023-08-24T13:19:57;0.32;;;0.25;;
24409;SDS011;12543;53.364;-1.504;2023-08-24T13:22:25;0.43;;;0.30;;
24409;SDS011;12543;53.364;-1.504;2023-08-24T13:24:52;0.30;;;0.30;;
24409;SDS011;12543;53.364;-1.504;2023-08-24T13:27:20;0.20;;;0.20;;
24409;SDS011;12543;53.364;-1.504;2023-08-24T13:29:48;0.20;;;0.20;;
24409;SDS011;12543;53.364;-1.504;2023-08-24T13:32:15;0.30;;;0.30;;
24409;SDS011;12543;53.364;-1.504;2023-08-24T13:34:43;0.47;;;0.20;;
24409;SDS011;12543;53.364;-1.504;2023-08-24T13:37:10;0.70;;;0.30;;
24409;SDS011;12543;53.364;-1.504;2023-08-24T13:39:38;0.40;;;0.20;;
24409;SDS011;12543;53.364;-1.504;2023-08-24T13:42:06;0.45;;;0.40;;
24409;SDS011;12543;53.364;-1.504;2023-08-24T13:44:34;0.82;;;0.40;;
24409;SDS011;12543;53.364;-1.504;2023-08-24T13:47:02;0.80;;;0.57;;
24409;SDS011;12543;53.364;-1.504;2023-08-24T13:49:31;0.55;;;0.43;;
24409;SDS011;12543;53.364;-1.504;2023-08-24T13:52:06;0.95;;;0.52;;
24409;SDS011;12543;53.364;-1.504;2023-08-24T13:54:34;0.77;;;0.60;;
24409;SDS011;12543;53.364;-1.504;2023-08-24T13:57:02;1.48;;;0.70;;
24409;SDS011;12543;53.364;-1.504;2023-08-24T13:59:29;0.57;;;0.52;;
24409;SDS011;12543;53.364;-1.504;2023-08-24T14:01:57;1.33;;;0.82;;
24409;SDS011;12543;53.364;-1.504;2023-08-24T14:04:24;1.17;;;0.60;;
24409;SDS011;12543;53.364;-1.504;2023-08-24T14:06:52;1.20;;;0.60;;
24409;SDS011;12543;53.364;-1.504;2023-08-24T14:09:19;2.50;;;2.00;;
24409;SDS011;12543;53.364;-1.504;2023-08-24T14:11:47;1.65;;;1.30;;
24409;SDS011;12543;53.364;-1.504;2023-08-24T14:14:15;1.58;;;1.10;;
24409;SDS011;12543;53.364;-1.504;2023-08-24T14:16:42;1.30;;;1.00;;
24409;SDS011;12543;53.364;-1.504;2023-08-24T14:19:10;1.27;;;0.90;;
24409;SDS011;12543;53.364;-1.504;2023-08-24T14:21:38;0.80;;;0.80;;
24409;SDS011;12543;53.364;-1.504;2023-08-24T14:24:11;1.08;;;0.70;;
24409;SDS011;12543;53.364;-1.504;2023-08-24T14:26:38;0.47;;;0.43;;
24409;SDS011;12543;53.364;-1.504;2023-08-24T14:29:13;0.63;;;0.50;;
24409;SDS011;12543;53.364;-1.504;2023-08-24T14:31:41;1.83;;;0.70;;
24409;SDS011;12543;53.364;-1.504;2023-08-24T14:34:08;1.38;;;0.60;;
24409;SDS011;12543;53.364;-1.504;2023-08-24T14:36:37;0.85;;;0.68;;
24409;SDS011;12543;53.364;-1.504;2023-08-24T14:39:05;0.93;;;0.60;;
24409;SDS011;12543;53.364;-1.504;2023-08-24T14:41:33;0.68;;;0.60;;
24409;SDS011;12543;53.364;-1.504;2023-08-24T14:44:01;0.87;;;0.50;;
24409;SDS011;12543;53.364;-1.504;2023-08-24T14:46:28;1.52;;;0.65;;
24409;SDS011;12543;53.364;-1.504;2023-08-24T14:48:56;1.25;;;0.88;;
24409;SDS011;12543;53.364;-1.504;2023-08-24T14:51:24;2.58;;;0.73;;
24409;SDS011;12543;53.364;-1.504;2023-08-24T14:53:52;0.80;;;0.80;;
24409;SDS011;12543;53.364;-1.504;2023-08-24T14:56:19;0.82;;;0.80;;
24409;SDS011;12543;53.364;-1.504;2023-08-24T14:58:47;1.02;;;0.98;;
24409;SDS011;12543;53.364;-1.504;2023-08-24T15:01:17;0.73;;;0.60;;
24409;SDS011;12543;53.364;-1.504;2023-08-24T15:03:45;1.23;;;0.90;;
24409;SDS011;12543;53.364;-1.504;2023-08-24T15:06:12;1.25;;;0.80;;
24409;SDS011;12543;53.364;-1.504;2023-08-24T15:08:40;0.87;;;0.70;;
24409;SDS011;12543;53.364;-1.504;2023-08-24T15:11:08;1.65;;;0.90;;
24409;SDS011;12543;53.364;-1.504;2023-08-24T15:13:37;0.70;;;0.70;;
24409;SDS011;12543;53.364;-1.504;2023-08-24T15:16:05;1.85;;;0.77;;
24409;SDS011;12543;53.364;-1.504;2023-08-24T15:18:33;2.05;;;0.75;;
24409;SDS011;12543;53.364;-1.504;2023-08-24T15:21:00;1.65;;;1.13;;
24409;SDS011;12543;53.364;-1.504;2023-08-24T15:23:29;0.82;;;0.65;;
24409;SDS011;12543;53.364;-1.504;2023-08-24T15:25:58;0.90;;;0.70;;
24409;SDS011;12543;53.364;-1.504;2023-08-24T15:28:25;1.23;;;0.88;;
24409;SDS011;12543;53.364;-1.504;2023-08-24T15:30:53;1.13;;;0.80;;
24409;SDS011;12543;53.364;-1.504;2023-08-24T15:33:21;1.25;;;0.80;;
24409;SDS011;12543;53.364;-1.504;2023-08-24T15:35:49;1.10;;;0.80;;
24409;SDS011;12543;53.364;-1.504;2023-08-24T15:38:16;0.80;;;0.50;;